sensor_id;sensor_type;location;lat;lon;timestamp;temperature;humidity
19435;DHT22;9853;50.848;4.108;2022-10-17T00:00:20;16.90;99.90
19435;DHT22;9853;50.848;4.108;2022-10-17T00:02:21;16.90;99.90
19435;DHT22;9853;50.848;4.108;2022-10-17T00:04:22;16.90;99.90
19435;DHT22;9853;50.848;4.108;2022-10-17T00:06:22;16.80;99.90
19435;DHT22;9853;50.848;4.108;2022-10-17T00:08:23;16.80;99.90
19435;DHT22;9853;50.848;4.108;2022-10-17T00:10:24;16.80;99.90
19435;DHT22;9853;50.848;4.108;2022-10-17T00:12:25;16.80;99.90
19435;DHT22;9853;50.848;4.108;2022-10-17T00:14:26;16.80;99.90
19435;DHT22;9853;50.848;4.108;2022-10-17T00:16:29;16.80;99.90
19435;DHT22;9853;50.848;4.108;2022-10-17T00:18:30;16.80;99.90
19435;DHT22;9853;50.848;4.108;2022-10-17T00:20:34;16.80;99.90
19435;DHT22;9853;50.848;4.108;2022-10-17T00:22:34;16.80;99.90
19435;DHT22;9853;50.848;4.108;2022-10-17T00:24:35;16.80;99.90
19435;DHT22;9853;50.848;4.108;2022-10-17T00:26:36;16.70;99.90
19435;DHT22;9853;50.848;4.108;2022-10-17T00:28:37;16.80;99.90
19435;DHT22;9853;50.848;4.108;2022-10-17T00:30:38;16.70;99.90
19435;DHT22;9853;50.848;4.108;2022-10-17T00:32:39;16.70;99.90
19435;DHT22;9853;50.848;4.108;2022-10-17T00:34:40;16.70;99.90
19435;DHT22;9853;50.848;4.108;2022-10-17T00:36:41;16.70;99.90
19435;DHT22;9853;50.848;4.108;2022-10-17T00:38:44;16.70;99.90
19435;DHT22;9853;50.848;4.108;2022-10-17T00:40:45;16.70;99.90
19435;DHT22;9853;50.848;4.108;2022-10-17T00:42:48;16.70;99.90
19435;DHT22;9853;50.848;4.108;2022-10-17T00:45:21;16.80;99.90
19435;DHT22;9853;50.848;4.108;2022-10-17T00:47:22;16.90;99.90
19435;DHT22;9853;50.848;4.108;2022-10-17T00:49:26;16.80;99.90
19435;DHT22;9853;50.848;4.108;2022-10-17T00:51:37;16.90;99.90
19435;DHT22;9853;50.848;4.108;2022-10-17T00:53:40;16.90;99.90
19435;DHT22;9853;50.848;4.108;2022-10-17T00:55:46;16.90;99.90
19435;DHT22;9853;50.848;4.108;2022-10-17T00:57:48;17.00;99.90
19435;DHT22;9853;50.848;4.108;2022-10-17T00:59:52;16.90;99.90
19435;DHT22;9853;50.848;4.108;2022-10-17T01:02:15;17.00;99.90
19435;DHT22;9853;50.848;4.108;2022-10-17T01:04:17;17.00;99.90
19435;DHT22;9853;50.848;4.108;2022-10-17T01:06:19;17.00;99.90
19435;DHT22;9853;50.848;4.108;2022-10-17T01:08:20;17.10;99.90
19435;DHT22;9853;50.848;4.108;2022-10-17T01:10:21;17.00;99.90
19435;DHT22;9853;50.848;4.108;2022-10-17T01:15:02;17.10;99.90
19435;DHT22;9853;50.848;4.108;2022-10-17T01:22:08;17.20;99.90
19435;DHT22;9853;50.848;4.108;2022-10-17T01:31:12;17.40;99.90
19435;DHT22;9853;50.848;4.108;2022-10-17T01:35:40;17.50;99.90
19435;DHT22;9853;50.848;4.108;2022-10-17T01:43:11;17.50;99.90
19435;DHT22;9853;50.848;4.108;2022-10-17T01:45:23;17.50;99.90
19435;DHT22;9853;50.848;4.108;2022-10-17T01:47:28;17.60;99.90
19435;DHT22;9853;50.848;4.108;2022-10-17T01:49:30;17.50;99.90
19435;DHT22;9853;50.848;4.108;2022-10-17T01:51:41;17.60;99.90
19435;DHT22;9853;50.848;4.108;2022-10-17T01:53:52;17.70;99.90
19435;DHT22;9853;50.848;4.108;2022-10-17T01:55:55;17.60;99.90
19435;DHT22;9853;50.848;4.108;2022-10-17T01:58:15;17.60;99.90
19435;DHT22;9853;50.848;4.108;2022-10-17T02:00:22;17.40;99.90
19435;DHT22;9853;50.848;4.108;2022-10-17T02:02:25;17.40;99.90
19435;DHT22;9853;50.848;4.108;2022-10-17T02:04:27;17.60;99.90
19435;DHT22;9853;50.848;4.108;2022-10-17T02:06:27;17.60;99.90
19435;DHT22;9853;50.848;4.108;2022-10-17T02:08:44;17.60;99.90
19435;DHT22;9853;50.848;4.108;2022-10-17T02:11:01;17.70;99.90
19435;DHT22;9853;50.848;4.108;2022-10-17T02:15:37;17.50;99.90
19435;DHT22;9853;50.848;4.108;2022-10-17T02:26:42;18.00;99.90
19435;DHT22;9853;50.848;4.108;2022-10-17T02:29:01;18.20;99.90
19435;DHT22;9853;50.848;4.108;2022-10-17T02:31:03;18.10;99.90
19435;DHT22;9853;50.848;4.108;2022-10-17T02:33:17;18.20;99.90
19435;DHT22;9853;50.848;4.108;2022-10-17T02:35:21;18.30;99.90
19435;DHT22;9853;50.848;4.108;2022-10-17T02:37:27;18.30;99.90
19435;DHT22;9853;50.848;4.108;2022-10-17T02:39:29;18.40;99.90
19435;DHT22;9853;50.848;4.108;2022-10-17T02:41:32;18.40;99.90
19435;DHT22;9853;50.848;4.108;2022-10-17T02:43:34;18.30;99.90
19435;DHT22;9853;50.848;4.108;2022-10-17T02:45:36;18.30;99.90
19435;DHT22;9853;50.848;4.108;2022-10-17T02:48:03;18.40;99.90
19435;DHT22;9853;50.848;4.108;2022-10-17T02:50:05;18.30;99.90
19435;DHT22;9853;50.848;4.108;2022-10-17T02:52:16;18.40;99.90
19435;DHT22;9853;50.848;4.108;2022-10-17T02:56:41;18.40;99.90
19435;DHT22;9853;50.848;4.108;2022-10-17T02:58:49;18.50;99.90
19435;DHT22;9853;50.848;4.108;2022-10-17T03:00:51;18.70;99.90
19435;DHT22;9853;50.848;4.108;2022-10-17T03:02:53;18.80;99.90
19435;DHT22;9853;50.848;4.108;2022-10-17T03:04:54;18.80;99.90
19435;DHT22;9853;50.848;4.108;2022-10-17T03:06:55;18.80;99.90
19435;DHT22;9853;50.848;4.108;2022-10-17T03:08:56;18.80;99.90
19435;DHT22;9853;50.848;4.108;2022-10-17T03:10:57;18.70;99.90
19435;DHT22;9853;50.848;4.108;2022-10-17T03:13:00;18.80;99.90
19435;DHT22;9853;50.848;4.108;2022-10-17T03:15:01;19.00;99.90
19435;DHT22;9853;50.848;4.108;2022-10-17T03:17:03;19.00;99.90
19435;DHT22;9853;50.848;4.108;2022-10-17T03:19:04;19.10;99.90
19435;DHT22;9853;50.848;4.108;2022-10-17T03:21:06;19.20;99.90
19435;DHT22;9853;50.848;4.108;2022-10-17T03:23:07;19.10;99.90
19435;DHT22;9853;50.848;4.108;2022-10-17T03:25:08;19.10;99.90
19435;DHT22;9853;50.848;4.108;2022-10-17T03:27:10;19.20;99.90
19435;DHT22;9853;50.848;4.108;2022-10-17T03:29:13;19.20;99.90
19435;DHT22;9853;50.848;4.108;2022-10-17T03:31:15;19.00;99.90
19435;DHT22;9853;50.848;4.108;2022-10-17T03:33:17;18.80;99.90
19435;DHT22;9853;50.848;4.108;2022-10-17T03:35:18;18.70;99.90
19435;DHT22;9853;50.848;4.108;2022-10-17T03:37:21;18.70;99.90
19435;DHT22;9853;50.848;4.108;2022-10-17T03:39:23;18.70;99.90
19435;DHT22;9853;50.848;4.108;2022-10-17T03:41:24;18.80;99.90
19435;DHT22;9853;50.848;4.108;2022-10-17T03:43:25;18.80;99.90
19435;DHT22;9853;50.848;4.108;2022-10-17T03:45:26;18.70;99.90
19435;DHT22;9853;50.848;4.108;2022-10-17T03:47:27;18.70;99.90
19435;DHT22;9853;50.848;4.108;2022-10-17T03:49:28;18.70;99.90
19435;DHT22;9853;50.848;4.108;2022-10-17T03:51:29;18.70;99.90
19435;DHT22;9853;50.848;4.108;2022-10-17T03:53:36;18.60;99.90
19435;DHT22;9853;50.848;4.108;2022-10-17T03:55:38;18.70;99.90
19435;DHT22;9853;50.848;4.108;2022-10-17T03:57:38;18.70;99.90
19435;DHT22;9853;50.848;4.108;2022-10-17T03:59:40;18.70;99.90
19435;DHT22;9853;50.848;4.108;2022-10-17T04:01:46;18.70;99.90
19435;DHT22;9853;50.848;4.108;2022-10-17T04:03:51;18.60;99.90
19435;DHT22;9853;50.848;4.108;2022-10-17T04:05:52;18.60;99.90
19435;DHT22;9853;50.848;4.108;2022-10-17T04:07:54;18.50;99.90
19435;DHT22;9853;50.848;4.108;2022-10-17T04:10:02;18.50;99.90
19435;DHT22;9853;50.848;4.108;2022-10-17T04:12:03;18.50;99.90
19435;DHT22;9853;50.848;4.108;2022-10-17T04:14:06;18.50;99.90
19435;DHT22;9853;50.848;4.108;2022-10-17T04:16:10;18.50;99.90
19435;DHT22;9853;50.848;4.108;2022-10-17T04:18:15;18.60;99.90
19435;DHT22;9853;50.848;4.108;2022-10-17T04:20:16;18.70;99.90
19435;DHT22;9853;50.848;4.108;2022-10-17T04:22:17;18.60;99.90
19435;DHT22;9853;50.848;4.108;2022-10-17T04:24:18;18.50;99.90
19435;DHT22;9853;50.848;4.108;2022-10-17T04:26:21;18.50;99.90
19435;DHT22;9853;50.848;4.108;2022-10-17T04:28:23;18.50;99.90
19435;DHT22;9853;50.848;4.108;2022-10-17T04:30:24;18.40;99.90
19435;DHT22;9853;50.848;4.108;2022-10-17T04:32:25;18.40;99.90
19435;DHT22;9853;50.848;4.108;2022-10-17T04:34:33;18.40;99.90
19435;DHT22;9853;50.848;4.108;2022-10-17T04:36:33;18.50;99.90
19435;DHT22;9853;50.848;4.108;2022-10-17T04:38:35;18.40;99.90
19435;DHT22;9853;50.848;4.108;2022-10-17T04:40:36;18.40;99.90
19435;DHT22;9853;50.848;4.108;2022-10-17T04:42:37;18.30;99.90
19435;DHT22;9853;50.848;4.108;2022-10-17T04:44:38;18.30;99.90
19435;DHT22;9853;50.848;4.108;2022-10-17T04:46:38;18.40;99.90
19435;DHT22;9853;50.848;4.108;2022-10-17T04:48:40;18.40;99.90
19435;DHT22;9853;50.848;4.108;2022-10-17T04:50:52;18.30;99.90
19435;DHT22;9853;50.848;4.108;2022-10-17T04:53:13;18.20;99.90
19435;DHT22;9853;50.848;4.108;2022-10-17T04:55:14;18.20;99.90
19435;DHT22;9853;50.848;4.108;2022-10-17T04:57:16;18.20;99.90
19435;DHT22;9853;50.848;4.108;2022-10-17T04:59:25;18.30;99.90
19435;DHT22;9853;50.848;4.108;2022-10-17T05:01:38;18.30;99.90
19435;DHT22;9853;50.848;4.108;2022-10-17T05:03:40;18.40;99.90
19435;DHT22;9853;50.848;4.108;2022-10-17T05:05:41;18.40;99.90
19435;DHT22;9853;50.848;4.108;2022-10-17T05:07:43;18.40;99.90
19435;DHT22;9853;50.848;4.108;2022-10-17T05:09:47;18.30;99.90
19435;DHT22;9853;50.848;4.108;2022-10-17T05:11:49;18.40;99.90
19435;DHT22;9853;50.848;4.108;2022-10-17T05:13:59;18.50;99.90
19435;DHT22;9853;50.848;4.108;2022-10-17T05:16:01;18.70;99.90
19435;DHT22;9853;50.848;4.108;2022-10-17T05:18:02;18.60;99.90
19435;DHT22;9853;50.848;4.108;2022-10-17T05:20:04;18.60;99.90
19435;DHT22;9853;50.848;4.108;2022-10-17T05:22:07;18.70;99.90
19435;DHT22;9853;50.848;4.108;2022-10-17T05:24:09;18.70;99.90
19435;DHT22;9853;50.848;4.108;2022-10-17T05:26:13;18.80;99.90
19435;DHT22;9853;50.848;4.108;2022-10-17T05:28:14;18.70;99.90
19435;DHT22;9853;50.848;4.108;2022-10-17T05:30:16;18.70;99.90
19435;DHT22;9853;50.848;4.108;2022-10-17T05:32:17;18.60;99.90
19435;DHT22;9853;50.848;4.108;2022-10-17T05:34:18;18.50;99.90
19435;DHT22;9853;50.848;4.108;2022-10-17T05:36:19;18.60;99.90
19435;DHT22;9853;50.848;4.108;2022-10-17T05:38:20;18.70;99.90
19435;DHT22;9853;50.848;4.108;2022-10-17T05:40:23;18.70;99.90
19435;DHT22;9853;50.848;4.108;2022-10-17T05:42:26;18.80;99.90
19435;DHT22;9853;50.848;4.108;2022-10-17T05:44:27;18.70;99.90
19435;DHT22;9853;50.848;4.108;2022-10-17T05:46:31;18.70;99.90
19435;DHT22;9853;50.848;4.108;2022-10-17T05:48:32;18.70;99.90
19435;DHT22;9853;50.848;4.108;2022-10-17T05:50:34;18.70;99.90
19435;DHT22;9853;50.848;4.108;2022-10-17T05:52:52;18.70;99.90
19435;DHT22;9853;50.848;4.108;2022-10-17T05:54:53;18.90;99.90
19435;DHT22;9853;50.848;4.108;2022-10-17T05:56:55;19.00;99.90
19435;DHT22;9853;50.848;4.108;2022-10-17T05:58:59;19.00;99.90
19435;DHT22;9853;50.848;4.108;2022-10-17T06:01:19;18.90;99.90
19435;DHT22;9853;50.848;4.108;2022-10-17T06:03:19;18.90;99.90
19435;DHT22;9853;50.848;4.108;2022-10-17T06:05:21;18.90;99.90
19435;DHT22;9853;50.848;4.108;2022-10-17T06:07:21;19.00;99.90
19435;DHT22;9853;50.848;4.108;2022-10-17T06:09:23;19.00;99.90
19435;DHT22;9853;50.848;4.108;2022-10-17T06:11:26;18.90;99.90
19435;DHT22;9853;50.848;4.108;2022-10-17T06:13:28;18.90;99.90
19435;DHT22;9853;50.848;4.108;2022-10-17T06:15:29;18.80;99.90
19435;DHT22;9853;50.848;4.108;2022-10-17T06:17:35;19.00;99.90
19435;DHT22;9853;50.848;4.108;2022-10-17T06:19:36;18.80;99.90
19435;DHT22;9853;50.848;4.108;2022-10-17T06:21:37;18.70;99.90
19435;DHT22;9853;50.848;4.108;2022-10-17T06:23:49;18.60;99.90
19435;DHT22;9853;50.848;4.108;2022-10-17T06:25:59;18.60;99.90
19435;DHT22;9853;50.848;4.108;2022-10-17T06:28:00;18.60;99.90
19435;DHT22;9853;50.848;4.108;2022-10-17T06:30:01;18.60;99.90
19435;DHT22;9853;50.848;4.108;2022-10-17T06:32:03;18.50;99.90
19435;DHT22;9853;50.848;4.108;2022-10-17T06:34:05;18.40;99.90
19435;DHT22;9853;50.848;4.108;2022-10-17T06:36:08;18.40;99.90
19435;DHT22;9853;50.848;4.108;2022-10-17T06:38:10;18.40;99.90
19435;DHT22;9853;50.848;4.108;2022-10-17T06:40:11;18.30;99.90
19435;DHT22;9853;50.848;4.108;2022-10-17T06:42:15;18.40;99.90
19435;DHT22;9853;50.848;4.108;2022-10-17T06:44:21;18.40;99.90
19435;DHT22;9853;50.848;4.108;2022-10-17T06:46:51;18.40;99.90
19435;DHT22;9853;50.848;4.108;2022-10-17T06:48:52;18.20;99.90
19435;DHT22;9853;50.848;4.108;2022-10-17T06:51:18;18.20;99.90
19435;DHT22;9853;50.848;4.108;2022-10-17T06:53:28;18.20;99.90
19435;DHT22;9853;50.848;4.108;2022-10-17T06:55:51;18.20;99.90
19435;DHT22;9853;50.848;4.108;2022-10-17T06:58:20;18.10;99.90
19435;DHT22;9853;50.848;4.108;2022-10-17T07:00:44;18.20;99.90
19435;DHT22;9853;50.848;4.108;2022-10-17T07:02:46;18.30;99.90
19435;DHT22;9853;50.848;4.108;2022-10-17T07:04:47;18.30;99.90
19435;DHT22;9853;50.848;4.108;2022-10-17T07:06:47;18.30;99.90
19435;DHT22;9853;50.848;4.108;2022-10-17T07:08:55;18.10;99.90
19435;DHT22;9853;50.848;4.108;2022-10-17T07:10:56;18.20;99.90
19435;DHT22;9853;50.848;4.108;2022-10-17T07:12:57;18.30;99.90
19435;DHT22;9853;50.848;4.108;2022-10-17T07:14:58;18.10;99.90
19435;DHT22;9853;50.848;4.108;2022-10-17T07:16:58;18.00;99.90
19435;DHT22;9853;50.848;4.108;2022-10-17T07:19:02;18.00;99.90
19435;DHT22;9853;50.848;4.108;2022-10-17T07:21:08;18.00;99.90
19435;DHT22;9853;50.848;4.108;2022-10-17T07:23:09;17.80;99.90
19435;DHT22;9853;50.848;4.108;2022-10-17T07:25:10;17.90;99.90
19435;DHT22;9853;50.848;4.108;2022-10-17T07:27:18;17.90;99.90
19435;DHT22;9853;50.848;4.108;2022-10-17T07:29:18;17.90;99.90
19435;DHT22;9853;50.848;4.108;2022-10-17T07:31:40;18.00;99.90
19435;DHT22;9853;50.848;4.108;2022-10-17T07:33:42;18.20;99.90
19435;DHT22;9853;50.848;4.108;2022-10-17T07:35:43;18.10;99.90
19435;DHT22;9853;50.848;4.108;2022-10-17T07:37:44;18.10;99.90
19435;DHT22;9853;50.848;4.108;2022-10-17T07:39:47;17.90;99.90
19435;DHT22;9853;50.848;4.108;2022-10-17T07:41:48;17.80;99.90
19435;DHT22;9853;50.848;4.108;2022-10-17T07:43:50;17.90;99.90
19435;DHT22;9853;50.848;4.108;2022-10-17T07:45:55;17.90;99.90
19435;DHT22;9853;50.848;4.108;2022-10-17T07:47:56;18.00;99.90
19435;DHT22;9853;50.848;4.108;2022-10-17T07:49:57;18.00;99.90
19435;DHT22;9853;50.848;4.108;2022-10-17T07:51:58;18.00;99.90
19435;DHT22;9853;50.848;4.108;2022-10-17T07:53:58;17.90;99.90
19435;DHT22;9853;50.848;4.108;2022-10-17T07:56:06;18.10;99.90
19435;DHT22;9853;50.848;4.108;2022-10-17T07:58:07;18.00;99.90
19435;DHT22;9853;50.848;4.108;2022-10-17T08:00:09;17.90;99.90
19435;DHT22;9853;50.848;4.108;2022-10-17T08:02:23;18.00;99.90
19435;DHT22;9853;50.848;4.108;2022-10-17T08:04:25;18.10;99.90
19435;DHT22;9853;50.848;4.108;2022-10-17T08:06:26;18.10;99.90
19435;DHT22;9853;50.848;4.108;2022-10-17T08:08:27;18.10;99.90
19435;DHT22;9853;50.848;4.108;2022-10-17T08:10:27;18.10;99.90
19435;DHT22;9853;50.848;4.108;2022-10-17T08:12:29;18.10;99.90
19435;DHT22;9853;50.848;4.108;2022-10-17T08:14:32;17.90;99.90
19435;DHT22;9853;50.848;4.108;2022-10-17T08:16:32;17.80;99.90
19435;DHT22;9853;50.848;4.108;2022-10-17T08:18:34;17.80;99.90
19435;DHT22;9853;50.848;4.108;2022-10-17T08:20:35;18.00;99.90
19435;DHT22;9853;50.848;4.108;2022-10-17T08:22:36;18.00;99.90
19435;DHT22;9853;50.848;4.108;2022-10-17T08:24:37;18.30;99.90
19435;DHT22;9853;50.848;4.108;2022-10-17T08:26:38;18.30;99.90
19435;DHT22;9853;50.848;4.108;2022-10-17T08:28:39;18.50;99.90
19435;DHT22;9853;50.848;4.108;2022-10-17T08:30:40;18.60;99.90
19435;DHT22;9853;50.848;4.108;2022-10-17T08:32:41;18.60;99.90
19435;DHT22;9853;50.848;4.108;2022-10-17T08:34:41;18.60;99.90
19435;DHT22;9853;50.848;4.108;2022-10-17T08:36:42;18.60;99.90
19435;DHT22;9853;50.848;4.108;2022-10-17T08:38:43;18.70;99.90
19435;DHT22;9853;50.848;4.108;2022-10-17T08:40:47;18.70;99.90
19435;DHT22;9853;50.848;4.108;2022-10-17T08:47:20;18.80;99.90
19435;DHT22;9853;50.848;4.108;2022-10-17T08:51:53;18.90;99.90
19435;DHT22;9853;50.848;4.108;2022-10-17T08:54:10;18.80;99.90
19435;DHT22;9853;50.848;4.108;2022-10-17T08:56:24;18.70;99.90
19435;DHT22;9853;50.848;4.108;2022-10-17T08:58:31;18.70;99.90
19435;DHT22;9853;50.848;4.108;2022-10-17T09:00:44;18.70;99.90
19435;DHT22;9853;50.848;4.108;2022-10-17T09:05:21;18.70;99.90
19435;DHT22;9853;50.848;4.108;2022-10-17T09:16:56;18.90;99.90
19435;DHT22;9853;50.848;4.108;2022-10-17T09:19:09;18.90;99.90
19435;DHT22;9853;50.848;4.108;2022-10-17T09:21:32;18.90;99.90
19435;DHT22;9853;50.848;4.108;2022-10-17T09:23:52;18.80;99.90
19435;DHT22;9853;50.848;4.108;2022-10-17T09:25:55;18.80;99.90
19435;DHT22;9853;50.848;4.108;2022-10-17T09:28:15;18.90;99.90
19435;DHT22;9853;50.848;4.108;2022-10-17T09:30:42;19.00;99.90
19435;DHT22;9853;50.848;4.108;2022-10-17T09:32:43;19.00;99.90
19435;DHT22;9853;50.848;4.108;2022-10-17T09:34:47;18.80;99.90
19435;DHT22;9853;50.848;4.108;2022-10-17T09:36:47;18.80;99.90
19435;DHT22;9853;50.848;4.108;2022-10-17T09:39:18;18.90;99.90
19435;DHT22;9853;50.848;4.108;2022-10-17T09:41:23;18.90;99.90
19435;DHT22;9853;50.848;4.108;2022-10-17T09:43:26;19.00;99.90
19435;DHT22;9853;50.848;4.108;2022-10-17T09:45:28;19.20;99.90
19435;DHT22;9853;50.848;4.108;2022-10-17T09:47:54;19.30;99.90
19435;DHT22;9853;50.848;4.108;2022-10-17T09:49:56;19.30;99.90
19435;DHT22;9853;50.848;4.108;2022-10-17T09:51:59;19.30;99.90
19435;DHT22;9853;50.848;4.108;2022-10-17T09:54:02;19.30;99.90
19435;DHT22;9853;50.848;4.108;2022-10-17T09:56:10;19.30;99.90
19435;DHT22;9853;50.848;4.108;2022-10-17T09:58:12;19.20;99.90
19435;DHT22;9853;50.848;4.108;2022-10-17T10:00:21;19.10;99.90
19435;DHT22;9853;50.848;4.108;2022-10-17T10:02:24;19.00;99.90
19435;DHT22;9853;50.848;4.108;2022-10-17T10:04:25;19.00;99.90
19435;DHT22;9853;50.848;4.108;2022-10-17T10:06:26;18.90;99.90
19435;DHT22;9853;50.848;4.108;2022-10-17T10:08:35;19.00;99.90
19435;DHT22;9853;50.848;4.108;2022-10-17T10:10:37;19.00;99.90
19435;DHT22;9853;50.848;4.108;2022-10-17T10:13:04;19.10;99.90
19435;DHT22;9853;50.848;4.108;2022-10-17T10:15:36;19.00;99.90
19435;DHT22;9853;50.848;4.108;2022-10-17T10:17:39;19.00;99.90
19435;DHT22;9853;50.848;4.108;2022-10-17T10:19:49;19.10;99.90
19435;DHT22;9853;50.848;4.108;2022-10-17T10:22:05;19.10;99.90
19435;DHT22;9853;50.848;4.108;2022-10-17T10:24:13;19.00;99.90
19435;DHT22;9853;50.848;4.108;2022-10-17T10:28:27;19.00;99.90
19435;DHT22;9853;50.848;4.108;2022-10-17T10:30:29;19.10;99.90
19435;DHT22;9853;50.848;4.108;2022-10-17T10:32:32;19.10;99.90
19435;DHT22;9853;50.848;4.108;2022-10-17T10:34:34;19.00;99.90
19435;DHT22;9853;50.848;4.108;2022-10-17T10:36:55;19.10;99.90
19435;DHT22;9853;50.848;4.108;2022-10-17T10:38:56;19.10;99.90
19435;DHT22;9853;50.848;4.108;2022-10-17T10:41:08;19.30;99.90
19435;DHT22;9853;50.848;4.108;2022-10-17T10:43:30;19.50;99.90
19435;DHT22;9853;50.848;4.108;2022-10-17T10:47:35;19.50;99.90
19435;DHT22;9853;50.848;4.108;2022-10-17T10:49:41;19.50;99.90
19435;DHT22;9853;50.848;4.108;2022-10-17T10:51:45;19.50;99.90
19435;DHT22;9853;50.848;4.108;2022-10-17T10:54:02;19.40;99.90
19435;DHT22;9853;50.848;4.108;2022-10-17T10:56:21;19.40;99.90
19435;DHT22;9853;50.848;4.108;2022-10-17T10:58:59;19.50;99.90
19435;DHT22;9853;50.848;4.108;2022-10-17T11:01:05;19.60;99.90
19435;DHT22;9853;50.848;4.108;2022-10-17T11:03:29;19.90;99.90
19435;DHT22;9853;50.848;4.108;2022-10-17T11:05:51;20.20;99.90
19435;DHT22;9853;50.848;4.108;2022-10-17T11:13:47;20.40;99.90
19435;DHT22;9853;50.848;4.108;2022-10-17T11:16:09;20.30;99.90
19435;DHT22;9853;50.848;4.108;2022-10-17T11:23:15;19.90;99.90
19435;DHT22;9853;50.848;4.108;2022-10-17T11:25:36;20.00;99.90
19435;DHT22;9853;50.848;4.108;2022-10-17T11:27:37;19.90;99.90
19435;DHT22;9853;50.848;4.108;2022-10-17T11:29:39;19.90;99.90
19435;DHT22;9853;50.848;4.108;2022-10-17T11:31:46;19.80;99.90
19435;DHT22;9853;50.848;4.108;2022-10-17T11:35:53;20.00;99.90
19435;DHT22;9853;50.848;4.108;2022-10-17T11:38:18;19.90;99.90
19435;DHT22;9853;50.848;4.108;2022-10-17T11:40:33;20.10;99.90
19435;DHT22;9853;50.848;4.108;2022-10-17T11:45:26;20.50;99.90
19435;DHT22;9853;50.848;4.108;2022-10-17T11:47:47;20.40;99.90
19435;DHT22;9853;50.848;4.108;2022-10-17T11:49:53;20.20;99.90
19435;DHT22;9853;50.848;4.108;2022-10-17T11:52:09;20.40;99.90
19435;DHT22;9853;50.848;4.108;2022-10-17T11:54:23;20.40;99.90
19435;DHT22;9853;50.848;4.108;2022-10-17T11:59:01;20.70;99.90
19435;DHT22;9853;50.848;4.108;2022-10-17T12:01:39;20.70;99.90
19435;DHT22;9853;50.848;4.108;2022-10-17T12:06:18;20.60;99.90
19435;DHT22;9853;50.848;4.108;2022-10-17T12:12:55;20.30;99.90
19435;DHT22;9853;50.848;4.108;2022-10-17T12:17:28;20.00;99.90
19435;DHT22;9853;50.848;4.108;2022-10-17T12:19:34;20.00;99.90
19435;DHT22;9853;50.848;4.108;2022-10-17T12:22:05;19.90;99.90
19435;DHT22;9853;50.848;4.108;2022-10-17T12:26:36;20.00;99.90
19435;DHT22;9853;50.848;4.108;2022-10-17T12:30:51;20.20;99.90
19435;DHT22;9853;50.848;4.108;2022-10-17T12:33:47;20.20;99.90
19435;DHT22;9853;50.848;4.108;2022-10-17T12:35:42;20.00;99.90
19435;DHT22;9853;50.848;4.108;2022-10-17T12:39:53;20.00;99.90
19435;DHT22;9853;50.848;4.108;2022-10-17T12:41:53;20.00;99.90
19435;DHT22;9853;50.848;4.108;2022-10-17T12:43:54;20.00;99.90
19435;DHT22;9853;50.848;4.108;2022-10-17T12:45:59;20.10;99.90
19435;DHT22;9853;50.848;4.108;2022-10-17T12:48:00;20.00;99.90
19435;DHT22;9853;50.848;4.108;2022-10-17T12:50:01;20.10;99.90
19435;DHT22;9853;50.848;4.108;2022-10-17T12:54:23;20.30;99.90
19435;DHT22;9853;50.848;4.108;2022-10-17T12:58:34;20.30;99.90
19435;DHT22;9853;50.848;4.108;2022-10-17T13:00:55;20.30;99.90
19435;DHT22;9853;50.848;4.108;2022-10-17T13:03:14;20.30;99.90
19435;DHT22;9853;50.848;4.108;2022-10-17T13:05:30;20.40;99.90
19435;DHT22;9853;50.848;4.108;2022-10-17T13:07:33;20.50;99.90
19435;DHT22;9853;50.848;4.108;2022-10-17T13:09:37;20.60;99.90
19435;DHT22;9853;50.848;4.108;2022-10-17T13:11:41;20.50;99.90
19435;DHT22;9853;50.848;4.108;2022-10-17T13:13:51;20.40;99.90
19435;DHT22;9853;50.848;4.108;2022-10-17T13:15:53;20.70;99.90
19435;DHT22;9853;50.848;4.108;2022-10-17T13:17:56;20.80;99.90
19435;DHT22;9853;50.848;4.108;2022-10-17T13:19:57;20.80;99.90
19435;DHT22;9853;50.848;4.108;2022-10-17T13:22:01;21.00;99.90
19435;DHT22;9853;50.848;4.108;2022-10-17T13:26:24;20.90;99.90
19435;DHT22;9853;50.848;4.108;2022-10-17T13:28:25;20.80;99.90
19435;DHT22;9853;50.848;4.108;2022-10-17T13:30:30;20.80;99.90
19435;DHT22;9853;50.848;4.108;2022-10-17T13:32:36;20.80;99.90
19435;DHT22;9853;50.848;4.108;2022-10-17T13:34:37;20.60;99.90
19435;DHT22;9853;50.848;4.108;2022-10-17T13:36:38;20.40;99.90
19435;DHT22;9853;50.848;4.108;2022-10-17T13:38:41;20.60;99.90
19435;DHT22;9853;50.848;4.108;2022-10-17T13:40:43;20.50;99.90
19435;DHT22;9853;50.848;4.108;2022-10-17T13:42:44;20.40;99.90
19435;DHT22;9853;50.848;4.108;2022-10-17T13:44:45;20.30;99.90
19435;DHT22;9853;50.848;4.108;2022-10-17T13:46:47;20.30;99.90
19435;DHT22;9853;50.848;4.108;2022-10-17T13:48:48;20.30;99.90
19435;DHT22;9853;50.848;4.108;2022-10-17T13:50:54;20.40;99.90
19435;DHT22;9853;50.848;4.108;2022-10-17T13:53:15;20.60;99.90
19435;DHT22;9853;50.848;4.108;2022-10-17T13:55:17;20.70;99.90
19435;DHT22;9853;50.848;4.108;2022-10-17T13:57:20;20.70;99.90
19435;DHT22;9853;50.848;4.108;2022-10-17T13:59:25;20.60;99.90
19435;DHT22;9853;50.848;4.108;2022-10-17T14:01:28;20.70;99.90
19435;DHT22;9853;50.848;4.108;2022-10-17T14:03:29;20.80;99.90
19435;DHT22;9853;50.848;4.108;2022-10-17T14:05:29;20.70;99.90
19435;DHT22;9853;50.848;4.108;2022-10-17T14:07:55;20.80;99.90
19435;DHT22;9853;50.848;4.108;2022-10-17T14:09:56;21.00;99.90
19435;DHT22;9853;50.848;4.108;2022-10-17T14:12:08;21.00;99.90
19435;DHT22;9853;50.848;4.108;2022-10-17T14:14:22;21.00;99.90
19435;DHT22;9853;50.848;4.108;2022-10-17T14:16:25;20.90;99.90
19435;DHT22;9853;50.848;4.108;2022-10-17T14:18:29;21.00;99.90
19435;DHT22;9853;50.848;4.108;2022-10-17T14:20:31;20.90;99.90
19435;DHT22;9853;50.848;4.108;2022-10-17T14:22:35;21.00;99.90
19435;DHT22;9853;50.848;4.108;2022-10-17T14:24:36;20.90;99.90
19435;DHT22;9853;50.848;4.108;2022-10-17T14:26:49;20.70;99.90
19435;DHT22;9853;50.848;4.108;2022-10-17T14:29:05;20.90;99.90
19435;DHT22;9853;50.848;4.108;2022-10-17T14:31:10;20.70;99.90
19435;DHT22;9853;50.848;4.108;2022-10-17T14:33:27;20.70;99.90
19435;DHT22;9853;50.848;4.108;2022-10-17T14:35:29;20.80;99.90
19435;DHT22;9853;50.848;4.108;2022-10-17T14:39:34;20.90;99.90
19435;DHT22;9853;50.848;4.108;2022-10-17T14:41:35;20.70;99.90
19435;DHT22;9853;50.848;4.108;2022-10-17T14:43:38;20.70;99.90
19435;DHT22;9853;50.848;4.108;2022-10-17T14:45:39;20.80;99.90
19435;DHT22;9853;50.848;4.108;2022-10-17T14:47:40;20.70;99.90
19435;DHT22;9853;50.848;4.108;2022-10-17T14:49:41;20.80;99.90
19435;DHT22;9853;50.848;4.108;2022-10-17T14:54:23;20.70;99.90
19435;DHT22;9853;50.848;4.108;2022-10-17T14:56:32;20.60;99.90
19435;DHT22;9853;50.848;4.108;2022-10-17T14:58:34;20.60;99.90
19435;DHT22;9853;50.848;4.108;2022-10-17T15:00:34;20.60;99.90
19435;DHT22;9853;50.848;4.108;2022-10-17T15:02:35;20.60;99.90
19435;DHT22;9853;50.848;4.108;2022-10-17T15:04:36;20.50;99.90
19435;DHT22;9853;50.848;4.108;2022-10-17T15:06:36;20.50;99.90
19435;DHT22;9853;50.848;4.108;2022-10-17T15:08:37;20.40;99.90
19435;DHT22;9853;50.848;4.108;2022-10-17T15:10:38;20.30;99.90